createdAt,value
2022-10-25T00:01:27.200Z,0.80
2022-10-25T00:03:54.194Z,0.60
2022-10-25T00:06:21.314Z,0.60
2022-10-25T00:08:48.005Z,0.60
2022-10-25T00:11:24.140Z,0.60
2022-10-25T00:13:52.479Z,0.93
2022-10-25T00:16:21.786Z,0.83
2022-10-25T00:18:48.714Z,0.70
2022-10-25T00:21:15.420Z,0.70
2022-10-25T00:23:42.272Z,0.60
2022-10-25T00:26:10.385Z,0.70
2022-10-25T00:28:37.587Z,0.80
2022-10-25T00:31:09.575Z,0.93
2022-10-25T00:33:37.317Z,0.80
2022-10-25T00:36:15.501Z,0.70
2022-10-25T00:38:42.873Z,0.87
2022-10-25T00:41:10.984Z,0.70
2022-10-25T00:43:40.765Z,0.80
2022-10-25T00:46:23.463Z,0.93
2022-10-25T00:49:08.935Z,0.70
2022-10-25T00:51:43.301Z,0.80
2022-10-25T00:54:12.761Z,0.80
2022-10-25T00:56:40.821Z,0.80
2022-10-25T00:59:09.997Z,0.80
2022-10-25T01:01:37.611Z,0.70
2022-10-25T01:04:07.702Z,0.70
2022-10-25T01:06:42.054Z,0.70
2022-10-25T01:09:15.426Z,0.80
2022-10-25T01:11:42.271Z,0.80
2022-10-25T01:14:10.902Z,0.63
2022-10-25T01:16:52.475Z,0.90
2022-10-25T01:19:49.253Z,1.00
2022-10-25T01:22:24.394Z,0.70
2022-10-25T01:25:21.440Z,0.90
2022-10-25T01:28:09.520Z,0.80
2022-10-25T01:31:27.528Z,0.90
2022-10-25T01:34:17.471Z,0.70
2022-10-25T01:36:55.740Z,0.80
2022-10-25T01:39:29.566Z,0.70
2022-10-25T01:42:07.702Z,0.80
2022-10-25T01:44:54.245Z,0.83
2022-10-25T01:47:41.126Z,0.87
2022-10-25T01:50:10.689Z,0.80
2022-10-25T01:52:37.475Z,0.90
2022-10-25T01:55:07.272Z,0.80
2022-10-25T01:58:01.712Z,0.90
2022-10-25T02:00:31.109Z,0.90
2022-10-25T02:03:03.694Z,0.90
2022-10-25T02:06:23.993Z,0.80
2022-10-25T02:09:07.243Z,0.90
2022-10-25T02:11:34.618Z,0.80
2022-10-25T02:14:08.323Z,1.03
2022-10-25T02:16:39.649Z,1.00
2022-10-25T02:19:08.970Z,0.80
2022-10-25T02:21:37.106Z,0.90
2022-10-25T02:24:09.391Z,0.90
2022-10-25T02:26:37.109Z,1.00
2022-10-25T02:29:04.915Z,1.03
2022-10-25T02:31:34.241Z,1.00
2022-10-25T02:34:01.095Z,1.00
2022-10-25T02:36:27.854Z,1.00
2022-10-25T02:38:55.009Z,0.97
2022-10-25T02:41:22.481Z,1.00
2022-10-25T02:43:49.373Z,0.97
2022-10-25T02:46:18.761Z,1.00
2022-10-25T02:48:46.078Z,1.10
2022-10-25T02:51:13.668Z,0.90
2022-10-25T02:53:41.111Z,0.90
2022-10-25T02:56:08.828Z,0.80
2022-10-25T02:58:37.287Z,1.00
2022-10-25T03:01:05.594Z,0.93
2022-10-25T03:03:32.766Z,0.80
2022-10-25T03:05:59.834Z,1.10
2022-10-25T03:10:58.827Z,1.10
2022-10-25T03:13:25.651Z,1.10
2022-10-25T03:15:52.406Z,1.13
2022-10-25T03:18:19.076Z,0.80
2022-10-25T03:20:47.012Z,1.20
2022-10-25T03:23:14.089Z,1.00
2022-10-25T03:25:41.186Z,1.07
2022-10-25T03:28:08.022Z,1.10
2022-10-25T03:30:35.095Z,0.90
2022-10-25T03:33:01.922Z,1.30
2022-10-25T03:35:28.738Z,1.00
2022-10-25T03:37:55.476Z,1.20
2022-10-25T03:40:22.202Z,1.00
2022-10-25T03:42:48.852Z,0.97
2022-10-25T03:45:15.624Z,0.90
2022-10-25T03:47:42.346Z,1.20
2022-10-25T03:50:09.379Z,1.10
2022-10-25T03:52:36.062Z,1.30
2022-10-25T03:55:02.841Z,1.03
2022-10-25T03:57:29.507Z,1.20
2022-10-25T03:59:57.780Z,1.20
2022-10-25T04:02:24.484Z,1.00
2022-10-25T04:04:51.131Z,1.17
2022-10-25T04:07:18.105Z,1.00
2022-10-25T04:09:45.378Z,1.20
2022-10-25T04:12:12.555Z,1.00
2022-10-25T04:14:39.239Z,1.20
2022-10-25T04:17:06.034Z,1.30
2022-10-25T04:19:32.702Z,1.00
2022-10-25T04:22:02.210Z,1.00
2022-10-25T04:24:29.441Z,1.17
2022-10-25T04:26:56.119Z,1.17
2022-10-25T04:29:23.073Z,1.27
2022-10-25T04:31:49.831Z,1.20
2022-10-25T04:34:16.632Z,1.13
2022-10-25T04:36:43.332Z,1.00
2022-10-25T04:39:10.091Z,0.90
2022-10-25T04:41:36.746Z,1.20
2022-10-25T04:44:03.451Z,1.30
2022-10-25T04:46:30.174Z,1.10
2022-10-25T04:48:57.224Z,1.13
2022-10-25T04:51:23.860Z,1.23
2022-10-25T04:53:52.885Z,1.30
2022-10-25T04:56:19.584Z,1.30
2022-10-25T04:58:46.282Z,1.30
2022-10-25T05:01:14.927Z,1.17
2022-10-25T05:03:41.985Z,1.20
2022-10-25T05:06:20.552Z,1.20
2022-10-25T05:08:48.748Z,1.40
2022-10-25T05:11:16.928Z,1.27
2022-10-25T05:13:45.107Z,1.10
2022-10-25T05:16:20.306Z,1.27
2022-10-25T05:18:47.433Z,1.10
2022-10-25T05:21:14.880Z,0.90
2022-10-25T05:23:41.678Z,1.10
2022-10-25T05:26:15.611Z,1.20
2022-10-25T05:28:43.891Z,1.20
2022-10-25T05:31:16.074Z,1.20
2022-10-25T05:33:46.217Z,1.30
2022-10-25T05:36:14.334Z,1.00
2022-10-25T05:38:41.785Z,1.30
2022-10-25T05:41:10.975Z,1.40
2022-10-25T05:43:37.844Z,1.20
2022-10-25T05:46:10.950Z,1.30
2022-10-25T05:48:38.424Z,1.10
2022-10-25T05:54:11.906Z,1.30
2022-10-25T05:56:39.673Z,1.07
2022-10-25T05:59:14.550Z,1.10
2022-10-25T06:01:46.083Z,1.20
2022-10-25T06:04:13.465Z,1.17
2022-10-25T06:06:41.178Z,1.03
2022-10-25T06:09:08.704Z,1.20
2022-10-25T06:11:36.032Z,1.20
2022-10-25T06:14:02.894Z,1.10
2022-10-25T06:16:29.757Z,1.10
2022-10-25T06:18:56.523Z,1.20
2022-10-25T06:21:25.291Z,1.10
2022-10-25T06:23:52.335Z,1.30
2022-10-25T06:26:22.618Z,1.10
2022-10-25T06:28:52.543Z,1.17
2022-10-25T06:31:20.079Z,1.00
2022-10-25T06:33:47.018Z,1.20
2022-10-25T06:36:22.192Z,1.10
2022-10-25T06:38:49.263Z,1.20
2022-10-25T06:41:23.849Z,1.30
2022-10-25T06:43:51.222Z,1.07
2022-10-25T06:46:20.937Z,1.10
2022-10-25T06:48:47.715Z,1.33
2022-10-25T06:51:14.968Z,1.50
2022-10-25T06:53:41.680Z,1.30
2022-10-25T06:56:14.427Z,1.07
2022-10-25T06:58:42.361Z,1.20
2022-10-25T07:01:13.008Z,1.20
2022-10-25T07:03:40.419Z,1.23
2022-10-25T07:06:11.830Z,1.30
2022-10-25T07:08:40.497Z,1.00
2022-10-25T07:11:07.862Z,1.30
2022-10-25T07:13:35.084Z,1.30
2022-10-25T07:16:03.419Z,1.27
2022-10-25T07:18:30.935Z,1.27
2022-10-25T07:21:06.399Z,1.20
2022-10-25T07:23:33.938Z,1.30
2022-10-25T07:26:00.771Z,1.50
2022-10-25T07:28:27.898Z,1.00
2022-10-25T07:30:54.719Z,1.17
2022-10-25T07:33:21.706Z,1.10
2022-10-25T07:36:05.839Z,1.20
2022-10-25T07:38:36.569Z,0.90
2022-10-25T07:41:03.442Z,1.13
2022-10-25T07:43:30.377Z,1.20
2022-10-25T07:45:57.289Z,1.07
2022-10-25T07:48:24.492Z,1.23
2022-10-25T07:50:51.577Z,1.00
2022-10-25T07:53:18.705Z,1.30
2022-10-25T07:55:57.840Z,1.40
2022-10-25T07:58:24.619Z,1.23
2022-10-25T08:00:51.315Z,1.07
2022-10-25T08:03:18.705Z,1.23
2022-10-25T08:05:46.686Z,1.20
2022-10-25T08:08:14.275Z,1.50
2022-10-25T08:10:44.415Z,1.23
2022-10-25T08:13:11.627Z,1.50
2022-10-25T08:15:40.909Z,1.40
2022-10-25T08:18:09.676Z,1.43
2022-10-25T08:21:01.207Z,1.30
2022-10-25T08:23:23.781Z,1.37
2022-10-25T08:25:50.600Z,1.30
2022-10-25T08:28:17.723Z,1.30
2022-10-25T08:30:44.463Z,1.30
2022-10-25T08:33:11.946Z,1.20
2022-10-25T08:35:39.098Z,1.37
2022-10-25T08:38:06.110Z,1.23
2022-10-25T08:41:00.323Z,1.33
2022-10-25T08:43:54.868Z,1.20
2022-10-25T08:46:30.710Z,1.30
2022-10-25T08:49:10.895Z,1.00
2022-10-25T08:51:40.597Z,1.20
2022-10-25T08:54:18.603Z,1.17
2022-10-25T08:57:03.730Z,1.30
2022-10-25T08:59:35.771Z,1.10
2022-10-25T09:02:03.114Z,1.30
2022-10-25T09:04:35.144Z,1.30
2022-10-25T09:07:30.281Z,1.30
2022-10-25T09:09:59.908Z,1.10
2022-10-25T09:12:40.493Z,1.40
2022-10-25T09:16:03.023Z,1.20
2022-10-25T09:21:55.961Z,1.20
2022-10-25T09:24:24.078Z,1.20
2022-10-25T09:27:09.623Z,1.30
2022-10-25T09:29:44.385Z,1.43
2022-10-25T09:32:39.404Z,1.10
2022-10-25T09:35:13.511Z,1.10
2022-10-25T09:37:47.730Z,1.00
2022-10-25T09:40:24.865Z,1.10
2022-10-25T09:42:56.044Z,1.10
2022-10-25T09:45:29.599Z,1.00
2022-10-25T09:48:11.284Z,0.90
2022-10-25T09:50:45.929Z,1.07
2022-10-25T09:53:16.461Z,1.10
2022-10-25T09:55:55.314Z,1.40
2022-10-25T09:58:28.634Z,1.00
2022-10-25T10:01:00.777Z,1.10
2022-10-25T10:03:30.392Z,1.10
2022-10-25T10:06:01.403Z,1.40
2022-10-25T10:08:28.847Z,1.20
2022-10-25T10:10:56.713Z,1.20
2022-10-25T10:13:49.669Z,1.30
2022-10-25T10:16:22.210Z,0.90
2022-10-25T10:18:49.139Z,1.10
2022-10-25T10:21:20.621Z,0.90
2022-10-25T10:24:03.005Z,1.00
2022-10-25T10:26:43.921Z,0.83
2022-10-25T10:29:16.687Z,1.00
2022-10-25T10:31:48.049Z,1.33
2022-10-25T10:34:25.035Z,1.30
2022-10-25T10:37:15.363Z,0.83
2022-10-25T10:39:55.211Z,1.20
2022-10-25T10:42:34.085Z,1.20
2022-10-25T10:45:08.187Z,1.30
2022-10-25T10:47:47.752Z,1.17
2022-10-25T10:50:24.362Z,1.20
2022-10-25T10:53:06.802Z,1.13
2022-10-25T10:56:03.393Z,0.90
2022-10-25T10:58:32.872Z,1.00
2022-10-25T11:01:12.590Z,1.10
2022-10-25T11:03:49.140Z,1.00
2022-10-25T11:06:29.641Z,0.90
2022-10-25T11:09:17.919Z,1.00
2022-10-25T11:11:45.583Z,1.00
2022-10-25T11:14:16.679Z,0.87
2022-10-25T11:17:20.212Z,0.83
2022-10-25T11:19:51.780Z,0.90
2022-10-25T11:22:37.054Z,1.10
2022-10-25T11:25:12.975Z,0.90
2022-10-25T11:28:13.390Z,1.00
2022-10-25T11:30:54.583Z,1.17
2022-10-25T11:33:51.660Z,0.90
2022-10-25T11:36:33.556Z,1.27
2022-10-25T11:39:18.608Z,0.90
2022-10-25T11:41:53.657Z,1.20
2022-10-25T11:44:45.650Z,1.37
2022-10-25T11:47:25.349Z,1.20
2022-10-25T11:50:23.169Z,1.07
2022-10-25T11:53:04.988Z,0.90
2022-10-25T11:55:45.746Z,1.17
2022-10-25T11:58:39.114Z,1.10
2022-10-25T12:01:39.551Z,1.07
2022-10-25T12:04:41.146Z,1.00
2022-10-25T12:07:32.026Z,0.90
2022-10-25T12:10:08.099Z,1.00
2022-10-25T12:12:49.675Z,1.07
2022-10-25T12:15:23.590Z,1.10
2022-10-25T12:17:51.265Z,1.20
2022-10-25T12:20:22.835Z,1.30
2022-10-25T12:22:51.410Z,1.33
2022-10-25T12:25:28.560Z,0.83
2022-10-25T12:28:09.702Z,1.10
2022-10-25T12:30:37.254Z,1.00
2022-10-25T12:33:09.105Z,1.00
2022-10-25T12:35:43.135Z,0.93
2022-10-25T12:38:34.665Z,0.80
2022-10-25T12:41:06.397Z,1.07
2022-10-25T12:43:48.103Z,0.90
2022-10-25T12:46:27.565Z,0.97
2022-10-25T12:49:23.639Z,1.00
2022-10-25T12:52:11.811Z,1.00
2022-10-25T12:55:12.155Z,1.27
2022-10-25T12:58:19.772Z,0.87
2022-10-25T13:01:02.012Z,1.20
2022-10-25T13:03:59.145Z,0.97
2022-10-25T13:06:38.067Z,0.87
2022-10-25T13:09:08.268Z,1.10
2022-10-25T13:11:38.293Z,1.40
2022-10-25T13:14:05.308Z,1.10
2022-10-25T13:16:33.741Z,1.00
2022-10-25T13:19:25.970Z,1.10
2022-10-25T13:22:35.889Z,0.97
2022-10-25T13:25:08.339Z,1.10
2022-10-25T13:27:36.351Z,1.30
2022-10-25T13:30:13.073Z,1.20
2022-10-25T13:32:43.520Z,1.90
2022-10-25T13:35:22.699Z,1.60
2022-10-25T13:37:54.170Z,1.10
2022-10-25T13:40:26.571Z,1.20
2022-10-25T13:43:16.726Z,1.20
2022-10-25T13:45:46.397Z,1.30
2022-10-25T13:48:33.038Z,1.37
2022-10-25T13:51:11.573Z,1.03
2022-10-25T13:53:41.785Z,1.10
2022-10-25T13:56:12.057Z,1.10
2022-10-25T13:58:56.027Z,1.20
2022-10-25T14:01:24.958Z,1.23
2022-10-25T14:04:23.379Z,1.30
2022-10-25T14:06:50.164Z,1.23
2022-10-25T14:09:34.760Z,1.10
2022-10-25T14:12:01.374Z,0.90
2022-10-25T14:14:49.685Z,1.17
2022-10-25T14:17:34.350Z,1.10
2022-10-25T14:20:08.653Z,1.03
2022-10-25T14:22:50.700Z,1.03
2022-10-25T14:25:28.340Z,1.00
2022-10-25T14:28:05.592Z,1.00
2022-10-25T14:30:35.355Z,1.10
2022-10-25T14:33:04.466Z,1.20
2022-10-25T14:35:34.220Z,0.83
2022-10-25T14:38:02.261Z,0.90
2022-10-25T14:40:30.926Z,1.10
2022-10-25T14:43:26.636Z,1.00
2022-10-25T14:46:00.627Z,1.10
2022-10-25T14:48:28.069Z,1.03
2022-10-25T14:50:55.862Z,1.10
2022-10-25T14:53:22.752Z,1.20
2022-10-25T14:56:00.565Z,1.47
2022-10-25T14:58:28.006Z,1.20
2022-10-25T15:00:56.610Z,1.20
2022-10-25T15:03:24.129Z,1.10
2022-10-25T15:05:52.127Z,1.00
2022-10-25T15:08:21.997Z,1.20
2022-10-25T15:11:00.725Z,1.10
2022-10-25T15:13:34.770Z,1.03
2022-10-25T15:16:03.701Z,0.97
2022-10-25T15:18:36.792Z,1.20
2022-10-25T15:21:03.558Z,1.00
2022-10-25T15:23:31.096Z,1.10
2022-10-25T15:25:57.852Z,1.40
2022-10-25T15:28:25.923Z,1.10
2022-10-25T15:31:03.064Z,1.20
2022-10-25T15:33:31.571Z,1.20
2022-10-25T15:36:00.864Z,1.33
2022-10-25T15:38:54.478Z,0.93
2022-10-25T15:41:20.601Z,1.30
2022-10-25T15:43:47.356Z,1.10
2022-10-25T15:46:23.173Z,1.20
2022-10-25T15:48:49.933Z,1.23
2022-10-25T15:51:17.464Z,1.10
2022-10-25T15:53:44.154Z,1.03
2022-10-25T15:56:16.110Z,1.00
2022-10-25T15:58:42.849Z,1.20
2022-10-25T16:01:09.695Z,1.37
2022-10-25T16:03:36.597Z,1.40
2022-10-25T16:06:03.520Z,1.40
2022-10-25T16:08:30.370Z,1.40
2022-10-25T16:10:57.785Z,1.30
2022-10-25T16:13:31.982Z,1.60
2022-10-25T16:16:04.380Z,1.53
2022-10-25T16:18:31.554Z,1.50
2022-10-25T16:20:59.180Z,1.40
2022-10-25T16:23:27.284Z,1.60
2022-10-25T16:25:55.185Z,1.70
2022-10-25T16:28:21.996Z,1.60
2022-10-25T16:30:49.104Z,1.50
2022-10-25T16:33:16.161Z,1.70
2022-10-25T16:35:42.864Z,1.83
2022-10-25T16:40:37.747Z,1.47
2022-10-25T16:43:04.777Z,1.57
2022-10-25T16:45:39.424Z,2.00
2022-10-25T16:48:06.339Z,2.00
2022-10-25T16:50:33.977Z,2.20
2022-10-25T16:53:03.550Z,2.20
2022-10-25T16:55:31.024Z,2.20
2022-10-25T16:57:58.958Z,2.50
2022-10-25T17:00:26.941Z,2.20
2022-10-25T17:02:53.760Z,2.37
2022-10-25T17:05:25.703Z,2.53
2022-10-25T17:07:52.588Z,2.50
2022-10-25T17:10:20.648Z,2.37
2022-10-25T17:12:52.996Z,2.50
2022-10-25T17:15:21.027Z,2.60
2022-10-25T17:17:48.077Z,2.50
2022-10-25T17:20:17.365Z,2.60
2022-10-25T17:22:44.151Z,2.30
2022-10-25T17:25:11.821Z,2.47
2022-10-25T17:27:41.624Z,2.40
2022-10-25T17:30:09.807Z,2.90
2022-10-25T17:32:37.782Z,2.77
2022-10-25T17:35:06.066Z,2.60
2022-10-25T17:37:33.094Z,2.80
2022-10-25T17:40:00.223Z,2.73
2022-10-25T17:42:28.300Z,2.70
2022-10-25T17:44:55.606Z,2.70
2022-10-25T17:47:22.280Z,3.00
2022-10-25T17:49:49.028Z,3.10
2022-10-25T17:52:15.688Z,2.90
2022-10-25T17:54:43.183Z,2.90
2022-10-25T17:57:09.949Z,2.83
2022-10-25T17:59:36.678Z,2.67
2022-10-25T18:02:03.552Z,3.00
2022-10-25T18:04:41.848Z,2.90
2022-10-25T18:07:17.201Z,3.43
2022-10-25T18:09:43.903Z,2.90
2022-10-25T18:12:11.583Z,3.30
2022-10-25T18:14:38.479Z,3.40
2022-10-25T18:17:06.541Z,3.13
2022-10-25T18:19:33.257Z,3.30
2022-10-25T18:22:00.714Z,3.30
2022-10-25T18:24:30.408Z,3.40
2022-10-25T18:26:57.463Z,3.23
2022-10-25T18:29:24.182Z,3.40
2022-10-25T18:31:51.429Z,3.70
2022-10-25T18:34:18.773Z,3.50
2022-10-25T18:36:45.415Z,3.27
2022-10-25T18:39:12.133Z,3.33
2022-10-25T18:41:40.844Z,3.60
2022-10-25T18:44:12.814Z,3.70
2022-10-25T18:46:42.111Z,3.50
2022-10-25T18:49:11.899Z,3.90
2022-10-25T18:51:38.982Z,3.33
2022-10-25T18:54:05.663Z,3.47
2022-10-25T18:56:32.548Z,3.27
2022-10-25T18:58:59.751Z,3.90
2022-10-25T19:01:32.601Z,3.97
2022-10-25T19:04:01.498Z,3.57
2022-10-25T19:06:29.531Z,3.90
2022-10-25T19:08:56.283Z,3.60
2022-10-25T19:11:23.188Z,3.90
2022-10-25T19:13:53.711Z,4.07
2022-10-25T19:16:20.891Z,4.03
2022-10-25T19:18:47.710Z,4.07
2022-10-25T19:21:17.016Z,4.10
2022-10-25T19:23:46.205Z,4.23
2022-10-25T19:26:16.032Z,4.30
2022-10-25T19:28:42.800Z,4.10
2022-10-25T19:31:14.597Z,4.53
2022-10-25T19:33:45.908Z,4.50
2022-10-25T19:36:12.651Z,4.30
2022-10-25T19:38:39.634Z,4.80
2022-10-25T19:41:08.720Z,4.80
2022-10-25T19:43:36.422Z,4.20
2022-10-25T19:46:05.033Z,4.87
2022-10-25T19:48:32.198Z,4.70
2022-10-25T19:51:05.402Z,4.73
2022-10-25T19:53:32.541Z,5.10
2022-10-25T19:56:20.373Z,4.93
2022-10-25T19:58:47.384Z,4.40
2022-10-25T20:01:20.088Z,4.70
2022-10-25T20:03:49.512Z,4.33
2022-10-25T20:06:21.780Z,4.90
2022-10-25T20:08:51.246Z,4.40
2022-10-25T20:11:18.412Z,4.63
2022-10-25T20:13:45.367Z,4.57
2022-10-25T20:16:13.765Z,4.70
2022-10-25T20:18:41.682Z,4.60
2022-10-25T20:21:16.861Z,4.80
2022-10-25T20:23:49.181Z,4.67
2022-10-25T20:26:24.078Z,4.90
2022-10-25T20:28:54.795Z,4.50
2022-10-25T20:31:23.105Z,4.63
2022-10-25T20:33:49.999Z,4.33
2022-10-25T20:36:16.670Z,4.20
2022-10-25T20:38:43.861Z,4.73
2022-10-25T20:41:13.264Z,4.80
2022-10-25T20:43:40.892Z,4.70
2022-10-25T20:46:08.267Z,4.40
2022-10-25T20:48:35.654Z,4.33
2022-10-25T20:51:05.365Z,4.53
2022-10-25T20:53:35.793Z,4.53
2022-10-25T20:56:02.636Z,4.60
2022-10-25T20:58:29.404Z,4.57
2022-10-25T21:00:57.560Z,4.23
2022-10-25T21:03:25.941Z,4.33
2022-10-25T21:05:53.900Z,4.60
2022-10-25T21:08:24.419Z,4.40
2022-10-25T21:10:55.869Z,4.37
2022-10-25T21:25:31.544Z,4.20
2022-10-25T21:27:58.593Z,4.43
2022-10-25T21:30:25.201Z,4.33
2022-10-25T21:32:51.866Z,3.70
2022-10-25T21:35:34.222Z,4.13
2022-10-25T21:38:00.931Z,3.63
2022-10-25T21:40:27.600Z,3.93
2022-10-25T21:42:57.782Z,3.70
2022-10-25T21:45:24.435Z,4.10
2022-10-25T21:47:51.316Z,4.00
2022-10-25T21:50:18.183Z,3.73
2022-10-25T21:52:44.991Z,3.80
2022-10-25T21:55:11.668Z,3.80
2022-10-25T21:57:38.441Z,3.80
2022-10-25T22:00:06.059Z,3.60
2022-10-25T22:02:32.877Z,3.67
2022-10-25T22:04:59.700Z,3.40
2022-10-25T22:07:26.386Z,3.67
2022-10-25T22:09:53.107Z,3.43
2022-10-25T22:12:19.788Z,3.73
2022-10-25T22:14:46.519Z,3.60
2022-10-25T22:17:13.267Z,3.47
2022-10-25T22:19:39.949Z,3.17
2022-10-25T22:22:06.608Z,3.10
2022-10-25T22:24:33.350Z,3.73
2022-10-25T22:27:00.038Z,3.57
2022-10-25T22:29:27.050Z,3.60
2022-10-25T22:31:53.776Z,3.13
2022-10-25T22:34:20.457Z,3.30
2022-10-25T22:36:47.115Z,2.93
2022-10-25T22:39:13.865Z,3.40
2022-10-25T22:41:40.548Z,3.47
2022-10-25T22:44:07.321Z,3.23
2022-10-25T22:46:35.205Z,3.10
2022-10-25T22:49:09.052Z,3.00
2022-10-25T22:51:36.491Z,3.20
2022-10-25T22:54:03.468Z,2.80
2022-10-25T22:56:31.046Z,2.80
2022-10-25T22:59:03.353Z,3.10
2022-10-25T23:01:37.604Z,2.73
2022-10-25T23:04:08.865Z,3.07
2022-10-25T23:06:38.040Z,3.00
2022-10-25T23:09:10.167Z,3.10
2022-10-25T23:11:38.883Z,2.73
2022-10-25T23:14:07.390Z,2.80
2022-10-25T23:16:34.120Z,3.13
2022-10-25T23:19:01.065Z,3.20
2022-10-25T23:21:30.271Z,3.30
2022-10-25T23:23:58.706Z,3.00
2022-10-25T23:26:31.787Z,3.03
2022-10-25T23:28:58.946Z,3.00
2022-10-25T23:31:26.344Z,2.80
2022-10-25T23:33:55.669Z,3.17
2022-10-25T23:36:24.346Z,2.90
2022-10-25T23:38:51.977Z,2.67
2022-10-25T23:41:19.899Z,2.90
2022-10-25T23:43:46.565Z,2.90
2022-10-25T23:46:13.417Z,2.93
2022-10-25T23:48:40.151Z,2.93
2022-10-25T23:51:12.124Z,2.90
2022-10-25T23:53:39.478Z,2.63
2022-10-25T23:56:08.172Z,2.80
2022-10-25T23:58:35.236Z,3.27
